This is the latest recevied weather packets stored in our database for station/object KD8DLP-13. If no packets are shown the sender has not sent any weather packets the latest 10 day(s).
| Time | Temp. | Humidity | Pressure | Rain* | Wind** | Luminosity | Snow |
|---|---|---|---|---|---|---|---|
| 1777048024 | 22.22° C | 70% | 1006.5 hPa | 0 mm | - | 134 W/m² | - |
| 1777047720 | 22.78° C | 68% | 1006.3 hPa | 0 mm | - | 47 W/m² | - |
| 1777047415 | 23.33° C | 67% | 1006.2 hPa | 0 mm | - | 89 W/m² | - |
| 1777047110 | 23.33° C | 66% | 1006 hPa | 0 mm | - | 180 W/m² | - |
| 1777046809 | 23.89° C | 66% | 1005.7 hPa | 0 mm | - | 186 W/m² | - |
| 1777046505 | 23.89° C | 67% | 1006 hPa | 0 mm | - | 182 W/m² | - |
| 1777046200 | 23.89° C | 66% | 1005.8 hPa | 0 mm | - | 184 W/m² | - |
| 1777045896 | 23.89° C | 66% | 1005.8 hPa | 0 mm | - | 316 W/m² | - |
| 1777045592 | 23.89° C | 66% | 1005.6 hPa | 0 mm | - | 240 W/m² | - |
| 1777045288 | 23.89° C | 65% | 1005.6 hPa | 0 mm | - | 426 W/m² | - |
| 1777044984 | 25° C | 63% | 1005.6 hPa | 0 mm | - | 316 W/m² | - |
| 1777044680 | 25° C | 62% | 1005.7 hPa | 0 mm | - | 632 W/m² | - |
| 1777044377 | 24.44° C | 65% | 1005.6 hPa | 0 mm | - | 526 W/m² | - |
| 1777044077 | 23.89° C | 65% | 1005.6 hPa | 0 mm | - | 578 W/m² | - |
| 1777043773 | 24.44° C | 63% | 1005.5 hPa | 0 mm | - | 510 W/m² | - |
| 1777043471 | 23.89° C | 65% | 1005.6 hPa | 0 mm | - | 464 W/m² | - |
| 1777043166 | 23.33° C | 66% | 1005.3 hPa | 0 mm | - | 269 W/m² | - |
| 1777042861 | 23.89° C | 64% | 1005.5 hPa | 0 mm | - | 346 W/m² | - |
| 1777042557 | 24.44° C | 64% | 1005.4 hPa | 0 mm | - | 518 W/m² | - |
| 1777042253 | 23.89° C | 65% | 1005.2 hPa | 0 mm | - | 463 W/m² | - |
| 1777041949 | 23.89° C | 66% | 1005.3 hPa | 0 mm | - | 454 W/m² | - |
| 1777041647 | 24.44° C | 65% | 1005.3 hPa | 0 mm | - | 383 W/m² | - |
| 1777041343 | 23.89° C | 66% | 1005.3 hPa | 0 mm | - | 391 W/m² | - |
| 1777041039 | 23.33° C | 67% | 1005.3 hPa | 0 mm | - | 386 W/m² | - |
| 1777040735 | 23.33° C | 66% | 1005.2 hPa | 0 mm | - | 436 W/m² | - |
* Rain latest hour (hover to see other rain measurements)
** Current wind speed in m/s (hover to see current wind gust speed)